sensor_id;sensor_type;location;lat;lon;timestamp;temperature;humidity
65040;HTU21D;51606;45.000;38.612;2023-03-01T00:00:25;5.21;66.17
65040;HTU21D;51606;45.000;38.612;2023-03-01T00:02:51;5.22;66.20
65040;HTU21D;51606;45.000;38.612;2023-03-01T00:05:18;5.23;66.24
65040;HTU21D;51606;45.000;38.612;2023-03-01T00:07:44;5.22;66.25
65040;HTU21D;51606;45.000;38.612;2023-03-01T00:10:11;5.22;66.24
65040;HTU21D;51606;45.000;38.612;2023-03-01T00:12:37;5.21;66.20
65040;HTU21D;51606;45.000;38.612;2023-03-01T00:15:04;5.21;66.24
65040;HTU21D;51606;45.000;38.612;2023-03-01T00:17:31;5.21;66.25
65040;HTU21D;51606;45.000;38.612;2023-03-01T00:19:57;5.19;66.40
65040;HTU21D;51606;45.000;38.612;2023-03-01T00:22:24;5.18;66.42
65040;HTU21D;51606;45.000;38.612;2023-03-01T00:24:52;5.17;66.37
65040;HTU21D;51606;45.000;38.612;2023-03-01T00:27:18;5.15;66.34
65040;HTU21D;51606;45.000;38.612;2023-03-01T00:29:45;5.12;66.36
65040;HTU21D;51606;45.000;38.612;2023-03-01T00:32:11;5.11;66.34
65040;HTU21D;51606;45.000;38.612;2023-03-01T00:34:37;5.11;66.33
65040;HTU21D;51606;45.000;38.612;2023-03-01T00:37:04;5.10;66.31
65040;HTU21D;51606;45.000;38.612;2023-03-01T00:39:32;5.11;66.30
65040;HTU21D;51606;45.000;38.612;2023-03-01T00:41:59;5.09;66.31
65040;HTU21D;51606;45.000;38.612;2023-03-01T00:44:25;5.09;66.29
65040;HTU21D;51606;45.000;38.612;2023-03-01T00:46:52;5.07;66.29
65040;HTU21D;51606;45.000;38.612;2023-03-01T00:49:18;5.07;66.27
65040;HTU21D;51606;45.000;38.612;2023-03-01T00:51:44;5.08;66.27
65040;HTU21D;51606;45.000;38.612;2023-03-01T00:54:10;5.06;66.30
65040;HTU21D;51606;45.000;38.612;2023-03-01T00:56:37;5.05;66.28
65040;HTU21D;51606;45.000;38.612;2023-03-01T00:59:03;5.04;66.30
65040;HTU21D;51606;45.000;38.612;2023-03-01T01:01:30;5.04;66.30
65040;HTU21D;51606;45.000;38.612;2023-03-01T01:04:00;5.03;66.29
65040;HTU21D;51606;45.000;38.612;2023-03-01T01:06:29;5.03;66.29
65040;HTU21D;51606;45.000;38.612;2023-03-01T01:08:56;5.04;66.27
65040;HTU21D;51606;45.000;38.612;2023-03-01T01:11:25;5.03;66.26
65040;HTU21D;51606;45.000;38.612;2023-03-01T01:13:52;5.00;66.27
65040;HTU21D;51606;45.000;38.612;2023-03-01T01:16:21;5.00;66.29
65040;HTU21D;51606;45.000;38.612;2023-03-01T01:18:49;4.98;66.27
65040;HTU21D;51606;45.000;38.612;2023-03-01T01:21:17;4.98;66.26
65040;HTU21D;51606;45.000;38.612;2023-03-01T01:23:45;4.95;66.30
65040;HTU21D;51606;45.000;38.612;2023-03-01T01:26:18;4.95;66.28
65040;HTU21D;51606;45.000;38.612;2023-03-01T01:28:45;4.94;66.27
65040;HTU21D;51606;45.000;38.612;2023-03-01T01:31:12;4.93;66.27
65040;HTU21D;51606;45.000;38.612;2023-03-01T01:33:38;4.92;66.31
65040;HTU21D;51606;45.000;38.612;2023-03-01T01:36:06;4.90;66.31
65040;HTU21D;51606;45.000;38.612;2023-03-01T01:38:33;4.88;66.33
65040;HTU21D;51606;45.000;38.612;2023-03-01T01:41:00;4.86;66.33
65040;HTU21D;51606;45.000;38.612;2023-03-01T01:43:34;4.84;66.35
65040;HTU21D;51606;45.000;38.612;2023-03-01T01:46:04;4.80;66.38
65040;HTU21D;51606;45.000;38.612;2023-03-01T01:48:45;4.77;66.40
65040;HTU21D;51606;45.000;38.612;2023-03-01T01:51:21;4.72;66.43
65040;HTU21D;51606;45.000;38.612;2023-03-01T01:53:53;4.67;66.46
65040;HTU21D;51606;45.000;38.612;2023-03-01T01:56:23;4.63;66.52
65040;HTU21D;51606;45.000;38.612;2023-03-01T01:58:50;4.62;66.53
65040;HTU21D;51606;45.000;38.612;2023-03-01T02:01:17;4.61;66.52
65040;HTU21D;51606;45.000;38.612;2023-03-01T02:03:45;4.61;66.51
65040;HTU21D;51606;45.000;38.612;2023-03-01T02:06:15;4.60;66.47
65040;HTU21D;51606;45.000;38.612;2023-03-01T02:08:44;4.53;66.49
65040;HTU21D;51606;45.000;38.612;2023-03-01T02:11:13;4.44;66.54
65040;HTU21D;51606;45.000;38.612;2023-03-01T02:13:41;4.30;66.72
65040;HTU21D;51606;45.000;38.612;2023-03-01T02:16:12;4.15;66.92
65040;HTU21D;51606;45.000;38.612;2023-03-01T02:18:41;4.00;67.12
65040;HTU21D;51606;45.000;38.612;2023-03-01T02:22:02;3.80;67.32
65040;HTU21D;51606;45.000;38.612;2023-03-01T02:24:30;3.64;67.52
65040;HTU21D;51606;45.000;38.612;2023-03-01T02:26:58;3.55;67.55
65040;HTU21D;51606;45.000;38.612;2023-03-01T02:29:27;3.44;67.61
65040;HTU21D;51606;45.000;38.612;2023-03-01T02:31:57;3.32;67.70
65040;HTU21D;51606;45.000;38.612;2023-03-01T02:34:26;3.23;67.77
65040;HTU21D;51606;45.000;38.612;2023-03-01T02:37:13;3.13;67.81
65040;HTU21D;51606;45.000;38.612;2023-03-01T02:39:44;3.02;67.85
65040;HTU21D;51606;45.000;38.612;2023-03-01T02:42:15;2.96;67.89
65040;HTU21D;51606;45.000;38.612;2023-03-01T02:44:43;2.89;67.90
65040;HTU21D;51606;45.000;38.612;2023-03-01T02:47:10;2.86;67.84
65040;HTU21D;51606;45.000;38.612;2023-03-01T02:49:37;2.82;67.81
65040;HTU21D;51606;45.000;38.612;2023-03-01T02:52:43;2.80;67.74
65040;HTU21D;51606;45.000;38.612;2023-03-01T02:55:16;2.73;67.68
65040;HTU21D;51606;45.000;38.612;2023-03-01T02:57:45;2.68;67.74
65040;HTU21D;51606;45.000;38.612;2023-03-01T03:00:18;2.62;67.75
65040;HTU21D;51606;45.000;38.612;2023-03-01T03:02:47;2.60;67.77
65040;HTU21D;51606;45.000;38.612;2023-03-01T03:05:29;2.61;67.63
65040;HTU21D;51606;45.000;38.612;2023-03-01T03:07:58;2.58;67.61
65040;HTU21D;51606;45.000;38.612;2023-03-01T03:10:28;2.55;67.59
65040;HTU21D;51606;45.000;38.612;2023-03-01T03:12:58;2.50;67.62
65040;HTU21D;51606;45.000;38.612;2023-03-01T03:15:26;2.49;67.68
65040;HTU21D;51606;45.000;38.612;2023-03-01T03:17:56;2.51;67.55
65040;HTU21D;51606;45.000;38.612;2023-03-01T03:20:25;2.49;67.50
65040;HTU21D;51606;45.000;38.612;2023-03-01T03:22:54;2.45;67.52
65040;HTU21D;51606;45.000;38.612;2023-03-01T03:25:21;2.46;67.49
65040;HTU21D;51606;45.000;38.612;2023-03-01T03:27:51;2.46;67.47
65040;HTU21D;51606;45.000;38.612;2023-03-01T03:30:24;2.45;67.40
65040;HTU21D;51606;45.000;38.612;2023-03-01T03:32:50;2.42;67.39
65040;HTU21D;51606;45.000;38.612;2023-03-01T03:35:26;2.37;67.47
65040;HTU21D;51606;45.000;38.612;2023-03-01T03:37:57;2.37;67.50
65040;HTU21D;51606;45.000;38.612;2023-03-01T03:40:44;2.39;67.46
65040;HTU21D;51606;45.000;38.612;2023-03-01T03:43:14;2.42;67.40
65040;HTU21D;51606;45.000;38.612;2023-03-01T03:45:41;2.43;67.29
65040;HTU21D;51606;45.000;38.612;2023-03-01T03:48:09;2.44;67.24
65040;HTU21D;51606;45.000;38.612;2023-03-01T03:50:37;2.45;67.30
65040;HTU21D;51606;45.000;38.612;2023-03-01T03:53:07;2.50;67.28
65040;HTU21D;51606;45.000;38.612;2023-03-01T03:55:35;2.52;67.12
65040;HTU21D;51606;45.000;38.612;2023-03-01T03:58:06;2.50;67.11
65040;HTU21D;51606;45.000;38.612;2023-03-01T04:00:35;2.47;67.13
65040;HTU21D;51606;45.000;38.612;2023-03-01T04:03:02;2.43;67.18
65040;HTU21D;51606;45.000;38.612;2023-03-01T04:05:28;2.39;67.28
65040;HTU21D;51606;45.000;38.612;2023-03-01T04:07:56;2.39;67.32
65040;HTU21D;51606;45.000;38.612;2023-03-01T04:10:31;2.40;67.30
65040;HTU21D;51606;45.000;38.612;2023-03-01T04:12:58;2.41;67.26
65040;HTU21D;51606;45.000;38.612;2023-03-01T04:15:25;2.42;67.20
65040;HTU21D;51606;45.000;38.612;2023-03-01T04:17:53;2.41;67.20
65040;HTU21D;51606;45.000;38.612;2023-03-01T04:20:23;2.40;67.25
65040;HTU21D;51606;45.000;38.612;2023-03-01T04:25:25;2.37;67.33
65040;HTU21D;51606;45.000;38.612;2023-03-01T04:27:52;2.40;67.27
65040;HTU21D;51606;45.000;38.612;2023-03-01T04:30:18;2.42;67.20
65040;HTU21D;51606;45.000;38.612;2023-03-01T04:32:44;2.42;67.18
65040;HTU21D;51606;45.000;38.612;2023-03-01T04:35:11;2.43;67.17
65040;HTU21D;51606;45.000;38.612;2023-03-01T04:37:37;2.46;67.17
65040;HTU21D;51606;45.000;38.612;2023-03-01T04:40:04;2.51;67.15
65040;HTU21D;51606;45.000;38.612;2023-03-01T04:42:42;2.56;67.10
65040;HTU21D;51606;45.000;38.612;2023-03-01T04:45:09;2.61;67.03
65040;HTU21D;51606;45.000;38.612;2023-03-01T04:47:43;2.68;66.95
65040;HTU21D;51606;45.000;38.612;2023-03-01T04:50:12;2.73;66.88
65040;HTU21D;51606;45.000;38.612;2023-03-01T04:52:38;2.76;66.85
65040;HTU21D;51606;45.000;38.612;2023-03-01T04:55:06;2.81;66.83
65040;HTU21D;51606;45.000;38.612;2023-03-01T04:57:33;2.85;66.78
65040;HTU21D;51606;45.000;38.612;2023-03-01T04:59:59;2.91;66.73
65040;HTU21D;51606;45.000;38.612;2023-03-01T05:02:25;2.96;66.69
65040;HTU21D;51606;45.000;38.612;2023-03-01T05:04:52;3.01;66.69
65040;HTU21D;51606;45.000;38.612;2023-03-01T05:07:18;3.06;66.67
65040;HTU21D;51606;45.000;38.612;2023-03-01T05:09:47;3.11;66.79
65040;HTU21D;51606;45.000;38.612;2023-03-01T05:12:14;3.19;66.78
65040;HTU21D;51606;45.000;38.612;2023-03-01T05:14:41;3.25;66.68
65040;HTU21D;51606;45.000;38.612;2023-03-01T05:17:08;3.31;66.69
65040;HTU21D;51606;45.000;38.612;2023-03-01T05:19:34;3.39;66.69
65040;HTU21D;51606;45.000;38.612;2023-03-01T05:29:44;3.65;66.48
65040;HTU21D;51606;45.000;38.612;2023-03-01T05:32:11;3.73;66.48
65040;HTU21D;51606;45.000;38.612;2023-03-01T05:34:41;3.79;66.38
65040;HTU21D;51606;45.000;38.612;2023-03-01T05:37:08;3.87;66.36
65040;HTU21D;51606;45.000;38.612;2023-03-01T05:39:34;3.92;66.40
65040;HTU21D;51606;45.000;38.612;2023-03-01T05:42:02;3.98;66.40
65040;HTU21D;51606;45.000;38.612;2023-03-01T05:44:28;4.05;66.49
65040;HTU21D;51606;45.000;38.612;2023-03-01T05:46:55;4.09;66.49
65040;HTU21D;51606;45.000;38.612;2023-03-01T05:49:22;4.19;66.45
65040;HTU21D;51606;45.000;38.612;2023-03-01T05:51:53;4.26;66.38
65040;HTU21D;51606;45.000;38.612;2023-03-01T05:54:20;4.33;66.35
65040;HTU21D;51606;45.000;38.612;2023-03-01T05:56:47;4.42;66.32
65040;HTU21D;51606;45.000;38.612;2023-03-01T05:59:14;4.49;66.27
65040;HTU21D;51606;45.000;38.612;2023-03-01T06:01:42;4.60;66.32
65040;HTU21D;51606;45.000;38.612;2023-03-01T06:04:09;4.72;66.28
65040;HTU21D;51606;45.000;38.612;2023-03-01T06:06:36;4.82;66.33
65040;HTU21D;51606;45.000;38.612;2023-03-01T06:09:04;4.91;66.30
65040;HTU21D;51606;45.000;38.612;2023-03-01T06:11:31;5.00;66.29
65040;HTU21D;51606;45.000;38.612;2023-03-01T06:13:57;5.05;66.43
65040;HTU21D;51606;45.000;38.612;2023-03-01T06:16:23;5.10;66.52
65040;HTU21D;51606;45.000;38.612;2023-03-01T06:18:49;5.16;66.58
65040;HTU21D;51606;45.000;38.612;2023-03-01T06:21:16;5.21;66.64
65040;HTU21D;51606;45.000;38.612;2023-03-01T06:23:42;5.28;66.75
65040;HTU21D;51606;45.000;38.612;2023-03-01T06:26:09;5.34;66.68
65040;HTU21D;51606;45.000;38.612;2023-03-01T06:28:37;5.45;66.68
65040;HTU21D;51606;45.000;38.612;2023-03-01T06:31:03;5.57;66.72
65040;HTU21D;51606;45.000;38.612;2023-03-01T06:33:30;5.69;66.65
65040;HTU21D;51606;45.000;38.612;2023-03-01T06:35:56;5.84;66.48
65040;HTU21D;51606;45.000;38.612;2023-03-01T06:38:23;6.00;66.56
65040;HTU21D;51606;45.000;38.612;2023-03-01T06:40:54;6.20;66.43
65040;HTU21D;51606;45.000;38.612;2023-03-01T06:43:21;6.30;66.49
65040;HTU21D;51606;45.000;38.612;2023-03-01T06:45:47;6.40;66.45
65040;HTU21D;51606;45.000;38.612;2023-03-01T06:48:14;6.43;66.33
65040;HTU21D;51606;45.000;38.612;2023-03-01T06:50:40;6.38;66.43
65040;HTU21D;51606;45.000;38.612;2023-03-01T06:53:07;6.31;66.56
65040;HTU21D;51606;45.000;38.612;2023-03-01T06:55:33;6.28;66.65
65040;HTU21D;51606;45.000;38.612;2023-03-01T06:58:00;6.28;66.72
65040;HTU21D;51606;45.000;38.612;2023-03-01T07:00:28;6.28;66.77
65040;HTU21D;51606;45.000;38.612;2023-03-01T07:02:56;6.36;66.72
65040;HTU21D;51606;45.000;38.612;2023-03-01T07:05:24;6.48;66.64
65040;HTU21D;51606;45.000;38.612;2023-03-01T07:07:50;6.54;66.54
65040;HTU21D;51606;45.000;38.612;2023-03-01T07:10:16;6.57;66.47
65040;HTU21D;51606;45.000;38.612;2023-03-01T07:12:43;6.64;66.49
65040;HTU21D;51606;45.000;38.612;2023-03-01T07:15:10;6.70;66.47
65040;HTU21D;51606;45.000;38.612;2023-03-01T07:17:36;6.76;66.40
65040;HTU21D;51606;45.000;38.612;2023-03-01T07:20:03;6.86;66.30
65040;HTU21D;51606;45.000;38.612;2023-03-01T07:22:30;6.94;66.24
65040;HTU21D;51606;45.000;38.612;2023-03-01T07:24:56;6.99;66.20
65040;HTU21D;51606;45.000;38.612;2023-03-01T07:27:22;7.11;66.18
65040;HTU21D;51606;45.000;38.612;2023-03-01T07:29:49;7.37;66.11
65040;HTU21D;51606;45.000;38.612;2023-03-01T07:32:15;7.78;65.84
65040;HTU21D;51606;45.000;38.612;2023-03-01T07:34:42;7.93;65.46
65040;HTU21D;51606;45.000;38.612;2023-03-01T07:37:08;7.92;65.50
65040;HTU21D;51606;45.000;38.612;2023-03-01T07:39:35;7.97;65.63
65040;HTU21D;51606;45.000;38.612;2023-03-01T07:42:01;8.05;65.52
65040;HTU21D;51606;45.000;38.612;2023-03-01T07:44:28;8.09;65.51
65040;HTU21D;51606;45.000;38.612;2023-03-01T07:46:54;8.16;65.47
65040;HTU21D;51606;45.000;38.612;2023-03-01T07:49:22;8.67;65.82
65040;HTU21D;51606;45.000;38.612;2023-03-01T07:51:48;9.27;65.11
65040;HTU21D;51606;45.000;38.612;2023-03-01T07:54:15;9.66;64.74
65040;HTU21D;51606;45.000;38.612;2023-03-01T07:56:41;9.97;64.76
65040;HTU21D;51606;45.000;38.612;2023-03-01T07:59:07;10.25;64.66
65040;HTU21D;51606;45.000;38.612;2023-03-01T08:01:34;10.57;64.34
65040;HTU21D;51606;45.000;38.612;2023-03-01T08:04:00;10.64;64.02
65040;HTU21D;51606;45.000;38.612;2023-03-01T08:06:27;10.44;64.09
65040;HTU21D;51606;45.000;38.612;2023-03-01T08:08:54;10.28;64.37
65040;HTU21D;51606;45.000;38.612;2023-03-01T08:11:21;10.16;64.56
65040;HTU21D;51606;45.000;38.612;2023-03-01T08:13:48;10.12;64.44
65040;HTU21D;51606;45.000;38.612;2023-03-01T08:16:15;10.09;64.47
65040;HTU21D;51606;45.000;38.612;2023-03-01T08:18:42;9.96;64.37
65040;HTU21D;51606;45.000;38.612;2023-03-01T08:21:14;9.80;64.46
65040;HTU21D;51606;45.000;38.612;2023-03-01T08:23:42;9.70;64.45
65040;HTU21D;51606;45.000;38.612;2023-03-01T08:26:11;9.83;64.61
65040;HTU21D;51606;45.000;38.612;2023-03-01T08:28:39;10.53;64.47
65040;HTU21D;51606;45.000;38.612;2023-03-01T08:31:18;11.00;63.37
65040;HTU21D;51606;45.000;38.612;2023-03-01T08:33:46;11.12;63.11
65040;HTU21D;51606;45.000;38.612;2023-03-01T08:36:38;10.96;63.11
65040;HTU21D;51606;45.000;38.612;2023-03-01T08:39:07;10.85;63.18
65040;HTU21D;51606;45.000;38.612;2023-03-01T08:41:33;10.62;63.05
65040;HTU21D;51606;45.000;38.612;2023-03-01T08:44:00;10.39;63.18
65040;HTU21D;51606;45.000;38.612;2023-03-01T08:46:33;10.20;63.15
65040;HTU21D;51606;45.000;38.612;2023-03-01T08:49:00;10.08;63.36
65040;HTU21D;51606;45.000;38.612;2023-03-01T08:51:26;10.00;63.29
65040;HTU21D;51606;45.000;38.612;2023-03-01T08:53:54;9.94;63.16
65040;HTU21D;51606;45.000;38.612;2023-03-01T08:56:20;9.86;63.11
65040;HTU21D;51606;45.000;38.612;2023-03-01T08:58:47;9.82;63.21
65040;HTU21D;51606;45.000;38.612;2023-03-01T09:01:18;9.90;63.11
65040;HTU21D;51606;45.000;38.612;2023-03-01T09:03:45;9.99;62.92
65040;HTU21D;51606;45.000;38.612;2023-03-01T09:06:12;10.09;62.62
65040;HTU21D;51606;45.000;38.612;2023-03-01T09:08:41;10.05;62.39
65040;HTU21D;51606;45.000;38.612;2023-03-01T09:11:15;9.97;62.49
65040;HTU21D;51606;45.000;38.612;2023-03-01T09:13:46;9.95;62.61
65040;HTU21D;51606;45.000;38.612;2023-03-01T09:16:15;10.03;62.55
65040;HTU21D;51606;45.000;38.612;2023-03-01T09:18:43;10.12;62.40
65040;HTU21D;51606;45.000;38.612;2023-03-01T09:21:13;10.15;62.13
65040;HTU21D;51606;45.000;38.612;2023-03-01T09:23:42;10.13;62.13
65040;HTU21D;51606;45.000;38.612;2023-03-01T09:26:11;10.13;62.10
65040;HTU21D;51606;45.000;38.612;2023-03-01T09:28:38;10.26;62.15
65040;HTU21D;51606;45.000;38.612;2023-03-01T09:31:05;10.38;61.90
65040;HTU21D;51606;45.000;38.612;2023-03-01T09:33:33;10.44;61.74
65040;HTU21D;51606;45.000;38.612;2023-03-01T09:36:01;10.42;61.60
65040;HTU21D;51606;45.000;38.612;2023-03-01T09:38:28;10.39;61.51
65040;HTU21D;51606;45.000;38.612;2023-03-01T09:40:54;10.41;61.61
65040;HTU21D;51606;45.000;38.612;2023-03-01T09:45:53;10.58;61.38
65040;HTU21D;51606;45.000;38.612;2023-03-01T09:48:24;10.64;61.36
65040;HTU21D;51606;45.000;38.612;2023-03-01T09:50:52;10.66;61.36
65040;HTU21D;51606;45.000;38.612;2023-03-01T09:53:22;10.65;61.28
65040;HTU21D;51606;45.000;38.612;2023-03-01T09:56:00;10.60;61.34
65040;HTU21D;51606;45.000;38.612;2023-03-01T10:09:54;10.52;61.34
65040;HTU21D;51606;45.000;38.612;2023-03-01T10:12:26;10.54;61.16
65040;HTU21D;51606;45.000;38.612;2023-03-01T10:15:09;10.52;61.05
65040;HTU21D;51606;45.000;38.612;2023-03-01T10:17:57;10.52;61.00
65040;HTU21D;51606;45.000;38.612;2023-03-01T10:20:33;10.59;60.93
65040;HTU21D;51606;45.000;38.612;2023-03-01T10:23:02;10.63;60.79
65040;HTU21D;51606;45.000;38.612;2023-03-01T10:25:57;10.72;60.71
65040;HTU21D;51606;45.000;38.612;2023-03-01T10:28:30;10.88;60.57
65040;HTU21D;51606;45.000;38.612;2023-03-01T10:30:58;11.02;60.31
65040;HTU21D;51606;45.000;38.612;2023-03-01T10:33:35;11.05;60.25
65040;HTU21D;51606;45.000;38.612;2023-03-01T10:36:03;11.11;60.20
65040;HTU21D;51606;45.000;38.612;2023-03-01T10:38:33;11.17;60.19
65040;HTU21D;51606;45.000;38.612;2023-03-01T10:41:14;11.28;59.88
65040;HTU21D;51606;45.000;38.612;2023-03-01T10:43:44;11.31;59.70
65040;HTU21D;51606;45.000;38.612;2023-03-01T10:46:33;11.30;59.44
65040;HTU21D;51606;45.000;38.612;2023-03-01T10:51:44;11.29;59.43
65040;HTU21D;51606;45.000;38.612;2023-03-01T10:54:25;11.25;59.67
65040;HTU21D;51606;45.000;38.612;2023-03-01T10:57:04;11.20;59.71
65040;HTU21D;51606;45.000;38.612;2023-03-01T10:59:34;11.17;59.63
65040;HTU21D;51606;45.000;38.612;2023-03-01T11:02:23;11.10;59.61
65040;HTU21D;51606;45.000;38.612;2023-03-01T11:07:58;11.02;59.73
65040;HTU21D;51606;45.000;38.612;2023-03-01T11:10:33;10.99;59.76
65040;HTU21D;51606;45.000;38.612;2023-03-01T11:13:06;10.90;59.00
65040;HTU21D;51606;45.000;38.612;2023-03-01T11:15:34;10.83;59.46
65040;HTU21D;51606;45.000;38.612;2023-03-01T11:18:01;10.77;59.72
65040;HTU21D;51606;45.000;38.612;2023-03-01T11:20:33;10.75;59.76
65040;HTU21D;51606;45.000;38.612;2023-03-01T11:23:12;10.77;59.60
65040;HTU21D;51606;45.000;38.612;2023-03-01T11:25:42;10.77;59.41
65040;HTU21D;51606;45.000;38.612;2023-03-01T11:28:19;10.82;59.27
65040;HTU21D;51606;45.000;38.612;2023-03-01T11:42:29;10.72;58.64
65040;HTU21D;51606;45.000;38.612;2023-03-01T11:45:04;10.68;58.70
65040;HTU21D;51606;45.000;38.612;2023-03-01T11:50:44;10.63;58.80
65040;HTU21D;51606;45.000;38.612;2023-03-01T11:53:45;10.65;58.68
65040;HTU21D;51606;45.000;38.612;2023-03-01T11:56:34;10.62;58.69
65040;HTU21D;51606;45.000;38.612;2023-03-01T12:02:02;10.55;58.72
65040;HTU21D;51606;45.000;38.612;2023-03-01T12:10:27;10.63;58.03
65040;HTU21D;51606;45.000;38.612;2023-03-01T12:13:14;10.59;57.90
65040;HTU21D;51606;45.000;38.612;2023-03-01T12:24:10;10.07;58.15
65040;HTU21D;51606;45.000;38.612;2023-03-01T12:29:31;10.01;58.18
65040;HTU21D;51606;45.000;38.612;2023-03-01T12:32:13;9.96;58.22
65040;HTU21D;51606;45.000;38.612;2023-03-01T12:34:55;9.94;58.17
65040;HTU21D;51606;45.000;38.612;2023-03-01T12:40:15;9.93;58.13
65040;HTU21D;51606;45.000;38.612;2023-03-01T12:43:07;9.84;58.17
65040;HTU21D;51606;45.000;38.612;2023-03-01T12:49:04;9.68;58.24
65040;HTU21D;51606;45.000;38.612;2023-03-01T12:51:35;9.55;58.32
65040;HTU21D;51606;45.000;38.612;2023-03-01T12:54:27;9.51;58.34
65040;HTU21D;51606;45.000;38.612;2023-03-01T12:56:56;9.53;58.29
65040;HTU21D;51606;45.000;38.612;2023-03-01T12:59:39;9.49;58.16
65040;HTU21D;51606;45.000;38.612;2023-03-01T13:02:36;9.42;58.13
65040;HTU21D;51606;45.000;38.612;2023-03-01T13:05:26;9.37;58.15
65040;HTU21D;51606;45.000;38.612;2023-03-01T13:08:20;9.31;58.07
65040;HTU21D;51606;45.000;38.612;2023-03-01T13:10:52;9.18;58.04
65040;HTU21D;51606;45.000;38.612;2023-03-01T13:13:22;8.97;58.20
65040;HTU21D;51606;45.000;38.612;2023-03-01T13:15:50;8.75;58.37
65040;HTU21D;51606;45.000;38.612;2023-03-01T13:20:51;8.35;58.73
65040;HTU21D;51606;45.000;38.612;2023-03-01T13:26:12;8.04;59.00
65040;HTU21D;51606;45.000;38.612;2023-03-01T13:28:48;7.99;58.98
65040;HTU21D;51606;45.000;38.612;2023-03-01T13:33:51;7.91;58.68
65040;HTU21D;51606;45.000;38.612;2023-03-01T13:50:00;7.84;58.30
65040;HTU21D;51606;45.000;38.612;2023-03-01T13:52:55;7.84;58.21
65040;HTU21D;51606;45.000;38.612;2023-03-01T13:57:58;7.75;58.19
65040;HTU21D;51606;45.000;38.612;2023-03-01T14:03:14;7.62;58.23
65040;HTU21D;51606;45.000;38.612;2023-03-01T14:05:56;7.55;58.27
65040;HTU21D;51606;45.000;38.612;2023-03-01T14:08:26;7.47;58.29
65040;HTU21D;51606;45.000;38.612;2023-03-01T14:21:39;6.90;58.85
65040;HTU21D;51606;45.000;38.612;2023-03-01T14:24:05;6.79;58.99
65040;HTU21D;51606;45.000;38.612;2023-03-01T14:26:33;6.68;59.09
65040;HTU21D;51606;45.000;38.612;2023-03-01T14:29:01;6.58;59.15
65040;HTU21D;51606;45.000;38.612;2023-03-01T14:31:35;6.48;59.22
65040;HTU21D;51606;45.000;38.612;2023-03-01T14:34:03;6.37;59.27
65040;HTU21D;51606;45.000;38.612;2023-03-01T14:36:32;6.24;59.32
65040;HTU21D;51606;45.000;38.612;2023-03-01T14:39:00;6.12;59.38
65040;HTU21D;51606;45.000;38.612;2023-03-01T14:41:35;5.97;59.44
65040;HTU21D;51606;45.000;38.612;2023-03-01T14:44:14;5.85;59.50
65040;HTU21D;51606;45.000;38.612;2023-03-01T14:46:43;5.72;59.52
65040;HTU21D;51606;45.000;38.612;2023-03-01T14:49:17;5.62;59.57
65040;HTU21D;51606;45.000;38.612;2023-03-01T14:51:58;5.49;59.61
65040;HTU21D;51606;45.000;38.612;2023-03-01T14:54:49;5.34;59.67
65040;HTU21D;51606;45.000;38.612;2023-03-01T14:57:21;5.22;59.78
65040;HTU21D;51606;45.000;38.612;2023-03-01T14:59:49;5.09;59.86
65040;HTU21D;51606;45.000;38.612;2023-03-01T15:02:20;5.00;59.92
65040;HTU21D;51606;45.000;38.612;2023-03-01T15:04:54;4.88;59.99
65040;HTU21D;51606;45.000;38.612;2023-03-01T15:07:26;4.77;60.06
65040;HTU21D;51606;45.000;38.612;2023-03-01T15:09:53;4.64;60.15
65040;HTU21D;51606;45.000;38.612;2023-03-01T15:14:55;4.47;60.28
65040;HTU21D;51606;45.000;38.612;2023-03-01T15:17:32;4.38;60.31
65040;HTU21D;51606;45.000;38.612;2023-03-01T15:20:00;4.29;60.38
65040;HTU21D;51606;45.000;38.612;2023-03-01T15:22:27;4.20;60.42
65040;HTU21D;51606;45.000;38.612;2023-03-01T15:24:54;4.14;60.49
65040;HTU21D;51606;45.000;38.612;2023-03-01T15:27:22;4.05;60.51
65040;HTU21D;51606;45.000;38.612;2023-03-01T15:29:52;4.00;60.54
65040;HTU21D;51606;45.000;38.612;2023-03-01T15:32:31;3.90;60.57
65040;HTU21D;51606;45.000;38.612;2023-03-01T15:34:59;3.77;60.67
65040;HTU21D;51606;45.000;38.612;2023-03-01T15:40:22;3.52;60.92
65040;HTU21D;51606;45.000;38.612;2023-03-01T15:43:01;3.39;61.03
65040;HTU21D;51606;45.000;38.612;2023-03-01T15:45:30;3.26;61.16
65040;HTU21D;51606;45.000;38.612;2023-03-01T15:47:58;3.12;61.28
65040;HTU21D;51606;45.000;38.612;2023-03-01T15:52:56;2.88;61.49
65040;HTU21D;51606;45.000;38.612;2023-03-01T15:55:29;2.81;61.57
65040;HTU21D;51606;45.000;38.612;2023-03-01T15:58:10;2.75;61.54
65040;HTU21D;51606;45.000;38.612;2023-03-01T16:00:38;2.73;61.54
65040;HTU21D;51606;45.000;38.612;2023-03-01T16:03:05;2.70;61.49
65040;HTU21D;51606;45.000;38.612;2023-03-01T16:05:35;2.68;61.44
65040;HTU21D;51606;45.000;38.612;2023-03-01T16:08:02;2.68;61.38
65040;HTU21D;51606;45.000;38.612;2023-03-01T16:10:30;2.66;61.33
65040;HTU21D;51606;45.000;38.612;2023-03-01T16:12:57;2.60;61.32
65040;HTU21D;51606;45.000;38.612;2023-03-01T16:15:32;2.55;61.34
65040;HTU21D;51606;45.000;38.612;2023-03-01T16:18:00;2.49;61.43
65040;HTU21D;51606;45.000;38.612;2023-03-01T16:20:27;2.41;61.45
65040;HTU21D;51606;45.000;38.612;2023-03-01T16:22:54;2.31;61.50
65040;HTU21D;51606;45.000;38.612;2023-03-01T16:25:21;2.26;61.60
65040;HTU21D;51606;45.000;38.612;2023-03-01T16:27:49;2.21;61.63
65040;HTU21D;51606;45.000;38.612;2023-03-01T16:30:19;2.17;61.60
65040;HTU21D;51606;45.000;38.612;2023-03-01T16:32:47;2.09;61.66
65040;HTU21D;51606;45.000;38.612;2023-03-01T16:35:16;2.01;61.69
65040;HTU21D;51606;45.000;38.612;2023-03-01T16:37:42;1.92;61.79
65040;HTU21D;51606;45.000;38.612;2023-03-01T16:40:24;1.85;61.81
65040;HTU21D;51606;45.000;38.612;2023-03-01T16:42:51;1.78;61.89
65040;HTU21D;51606;45.000;38.612;2023-03-01T16:45:19;1.71;61.95
65040;HTU21D;51606;45.000;38.612;2023-03-01T16:47:45;1.66;61.95
65040;HTU21D;51606;45.000;38.612;2023-03-01T16:50:11;1.61;61.99
65040;HTU21D;51606;45.000;38.612;2023-03-01T16:52:38;1.53;62.02
65040;HTU21D;51606;45.000;38.612;2023-03-01T16:55:07;1.48;62.05
65040;HTU21D;51606;45.000;38.612;2023-03-01T16:57:37;1.40;62.10
65040;HTU21D;51606;45.000;38.612;2023-03-01T17:00:08;1.36;62.11
65040;HTU21D;51606;45.000;38.612;2023-03-01T17:02:39;1.28;62.15
65040;HTU21D;51606;45.000;38.612;2023-03-01T17:05:07;1.22;62.18
65040;HTU21D;51606;45.000;38.612;2023-03-01T17:07:34;1.22;62.24
65040;HTU21D;51606;45.000;38.612;2023-03-01T17:10:01;1.24;62.12
65040;HTU21D;51606;45.000;38.612;2023-03-01T17:12:28;1.22;62.00
65040;HTU21D;51606;45.000;38.612;2023-03-01T17:14:54;1.16;62.03
65040;HTU21D;51606;45.000;38.612;2023-03-01T17:17:21;1.09;62.10
65040;HTU21D;51606;45.000;38.612;2023-03-01T17:19:48;1.03;62.15
65040;HTU21D;51606;45.000;38.612;2023-03-01T17:22:14;0.99;62.18
65040;HTU21D;51606;45.000;38.612;2023-03-01T17:24:42;0.94;62.18
65040;HTU21D;51606;45.000;38.612;2023-03-01T17:27:09;0.92;62.17